VIR99 EGLL-EGPF
Flight info
| Callsign | VIR99 |
|---|---|
| Flight time | N/A |
| Altitude | 32000 |
| Route | ULTIB T420 TNT UN57 POL UN601 RIBEL DCT ASLIB |
| Aircraft | A346/H-SDE2E3FGHIJ3J4J5M1RWXY/LB1D1 |
Departure
| Time | 2026-05-06 18:25 |
|---|---|
| Airport | London Heathrow Airport (EGLL) |
Arrival
| Time | N/A |
|---|---|
| Airport | Glasgow Airport (EGPF) |
| Time | Latitude | Longitude | Altitude | Speed | Heading |
|---|---|---|---|---|---|
| 2026-05-06 17:56 | 51.47210 | -0.46259 | 96 ft | 0 kts | 56° |
| 2026-05-06 18:12 | 51.47208 | -0.46263 | 94 ft | 2 kts | 56° |
| 2026-05-06 18:12 | 51.47193 | -0.46297 | 96 ft | 4 kts | 56° |
| 2026-05-06 18:12 | 51.47182 | -0.46323 | 96 ft | 4 kts | 40° |
| 2026-05-06 18:13 | 51.47167 | -0.46335 | 94 ft | 4 kts | 1° |
| 2026-05-06 18:13 | 51.47150 | -0.46326 | 97 ft | 3 kts | 326° |
| 2026-05-06 18:13 | 51.47129 | -0.46303 | 97 ft | 4 kts | 326° |
| 2026-05-06 18:13 | 51.47118 | -0.46291 | 95 ft | 0 kts | 326° |
| 2026-05-06 18:17 | 51.47140 | -0.46315 | 95 ft | 17 kts | 326° |
| 2026-05-06 18:18 | 51.47235 | -0.46470 | 98 ft | 19 kts | 281° |
| 2026-05-06 18:18 | 51.47240 | -0.46662 | 94 ft | 15 kts | 269° |
| 2026-05-06 18:18 | 51.47233 | -0.46828 | 97 ft | 12 kts | 244° |
| 2026-05-06 18:18 | 51.47152 | -0.46864 | 94 ft | 14 kts | 175° |
| 2026-05-06 18:19 | 51.47042 | -0.46865 | 94 ft | 18 kts | 181° |
| 2026-05-06 18:19 | 51.46907 | -0.46868 | 96 ft | 21 kts | 179° |
| 2026-05-06 18:19 | 51.46753 | -0.46858 | 95 ft | 23 kts | 179° |
| 2026-05-06 18:19 | 51.46663 | -0.46931 | 97 ft | 17 kts | 251° |
| 2026-05-06 18:20 | 51.46657 | -0.47124 | 98 ft | 12 kts | 269° |
| 2026-05-06 18:20 | 51.46656 | -0.47260 | 97 ft | 14 kts | 270° |
| 2026-05-06 18:20 | 51.46656 | -0.47429 | 97 ft | 17 kts | 270° |
| 2026-05-06 18:20 | 51.46655 | -0.47628 | 97 ft | 15 kts | 269° |
| 2026-05-06 18:21 | 51.46655 | -0.47784 | 97 ft | 7 kts | 269° |
| 2026-05-06 18:21 | 51.46654 | -0.47883 | 94 ft | 11 kts | 269° |
| 2026-05-06 18:21 | 51.46654 | -0.48019 | 95 ft | 14 kts | 269° |
| 2026-05-06 18:21 | 51.46653 | -0.48190 | 95 ft | 17 kts | 269° |
| 2026-05-06 18:22 | 51.46652 | -0.48401 | 95 ft | 20 kts | 270° |
| 2026-05-06 18:22 | 51.46651 | -0.48635 | 95 ft | 14 kts | 269° |
| 2026-05-06 18:22 | 51.46616 | -0.48750 | 97 ft | 0 kts | 201° |
| 2026-05-06 18:23 | 51.46612 | -0.48752 | 97 ft | 2 kts | 201° |
| 2026-05-06 18:23 | 51.46574 | -0.48776 | 97 ft | 9 kts | 199° |
| 2026-05-06 18:24 | 51.46498 | -0.48758 | 97 ft | 14 kts | 148° |
| 2026-05-06 18:24 | 51.46478 | -0.48631 | 96 ft | 14 kts | 90° |
| 2026-05-06 18:24 | 51.46478 | -0.48258 | 98 ft | 66 kts | 88° |
| 2026-05-06 18:24 | 51.46484 | -0.47154 | 98 ft | 129 kts | 89° |
| 2026-05-06 18:25 | 51.46482 | -0.45421 | 158 ft | 173 kts | 87° |
| 2026-05-06 18:25 | 51.46497 | -0.43452 | 730 ft | 181 kts | 86° |
| 2026-05-06 18:25 | 51.46631 | -0.41407 | 1296 ft | 189 kts | 68° |
| 2026-05-06 18:25 | 51.47341 | -0.39552 | 1765 ft | 202 kts | 50° |
| 2026-05-06 18:26 | 51.48273 | -0.37730 | 2204 ft | 220 kts | 48° |
| 2026-05-06 18:26 | 51.49290 | -0.35777 | 2663 ft | 241 kts | 49° |
| 2026-05-06 18:26 | 51.50384 | -0.33644 | 3372 ft | 251 kts | 49° |
| 2026-05-06 18:26 | 51.51503 | -0.31439 | 4292 ft | 255 kts | 49° |
| 2026-05-06 18:27 | 51.52576 | -0.29137 | 5148 ft | 262 kts | 60° |
| 2026-05-06 18:27 | 51.53267 | -0.26390 | 5744 ft | 268 kts | 70° |